Time;durP1;ratioP1;P1;durP2;ratioP2;P2;SDS_P1;SDS_P2;PMS_P1;PMS_P2;Temp;Humidity;BMP_temperature;BMP_pressure;BME280_temperature;BME280_humidity;BME280_pressure;Samples;Min_cycle;Max_cycle;Signal;HPM_P1;HPM_P2
2023/05/13 00:01:38;;;;;;;8.02;6.03;;;;;;;14.39;93.38;102049.50;5080263;28;20028;-79
2023/05/13 00:04:09;;;;;;;6.32;5.45;;;;;;;14.33;93.90;102053.81;5078555;28;20039;-79
2023/05/13 00:06:34;;;;;;;8.15;6.22;;;;;;;14.12;92.74;102025.25;5096650;28;20046;-79
2023/05/13 00:09:00;;;;;;;9.52;6.65;;;;;;;14.19;92.03;102017.78;5075851;28;20025;-79
2023/05/13 00:11:25;;;;;;;7.43;5.82;;;;;;;14.22;93.56;102021.84;5090573;28;20028;-79
2023/05/13 00:13:51;;;;;;;9.68;5.82;;;;;;;14.26;92.28;102033.97;5070173;28;20025;-78
2023/05/13 00:16:16;;;;;;;7.78;6.72;;;;;;;14.08;93.28;102016.75;5069971;28;20061;-78
2023/05/13 00:18:42;;;;;;;10.77;5.55;;;;;;;14.08;92.67;102016.75;5075504;28;20073;-79
2023/05/13 00:21:10;;;;;;;7.32;5.90;;;;;;;14.14;92.28;102020.06;5069820;28;20493;-79
2023/05/13 00:23:35;;;;;;;7.13;6.07;;;;;;;14.20;92.64;102041.09;5071840;28;20281;-79
2023/05/13 00:26:01;;;;;;;10.40;6.50;;;;;;;14.09;92.88;102029.66;5078899;28;20077;-79
2023/05/13 00:28:26;;;;;;;10.05;8.13;;;;;;;14.09;92.65;102023.22;5081977;28;20051;-79
2023/05/13 00:30:52;;;;;;;11.00;5.88;;;;;;;14.06;93.72;102018.31;5081287;28;20024;-79
2023/05/13 00:33:17;;;;;;;6.63;5.97;;;;;;;14.16;92.35;102018.50;5079870;28;20224;-78
2023/05/13 00:35:42;;;;;;;7.03;6.32;;;;;;;14.03;93.19;102014.25;5070154;28;20100;-79
2023/05/13 00:38:08;;;;;;;10.65;6.93;;;;;;;14.01;93.29;102022.25;5069590;28;20025;-79
2023/05/13 00:40:38;;;;;;;9.73;6.88;;;;;;;14.01;93.51;102009.00;5072288;28;20041;-79
2023/05/13 00:43:04;;;;;;;11.40;5.95;;;;;;;13.95;95.44;102024.56;5079241;28;20054;-78
2023/05/13 00:45:30;;;;;;;10.10;6.72;;;;;;;13.94;93.58;102022.94;5073531;28;20385;-78
2023/05/13 00:47:55;;;;;;;9.65;7.55;;;;;;;13.94;93.05;102011.69;5070705;28;20056;-78
2023/05/13 00:50:21;;;;;;;8.60;7.15;;;;;;;13.77;91.50;102001.72;5070632;28;20393;-79
2023/05/13 00:52:48;;;;;;;9.95;7.07;;;;;;;13.82;94.37;102021.09;5078517;28;20032;-79
2023/05/13 00:55:13;;;;;;;11.57;6.60;;;;;;;13.92;94.21;102024.50;5075174;28;20032;-78
2023/05/13 00:57:39;;;;;;;9.98;7.38;;;;;;;13.84;93.58;102017.91;5073644;28;20038;-79
2023/05/13 01:00:06;;;;;;;8.38;7.07;;;;;;;13.82;95.11;102020.28;5078925;28;20497;-78
2023/05/13 01:02:42;;;;;;;9.35;7.13;;;;;;;13.74;94.78;102026.97;5080236;28;20119;-79
2023/05/13 01:05:30;;;;;;;9.32;7.30;;;;;;;13.57;95.04;102014.97;5071541;28;20040;-79
2023/05/13 01:08:20;;;;;;;10.13;7.20;;;;;;;13.70;94.69;102023.25;5081926;28;20047;-78
2023/05/13 01:10:54;;;;;;;8.45;7.07;;;;;;;13.48;94.68;101999.53;5069754;28;20041;-78
2023/05/13 01:13:23;;;;;;;10.05;6.95;;;;;;;13.59;94.00;102023.06;5076763;28;20027;-78
2023/05/13 01:15:57;;;;;;;8.32;7.05;;;;;;;13.35;95.83;102007.31;5086298;28;20093;-78
2023/05/13 01:18:39;;;;;;;9.27;6.82;;;;;;;13.39;96.99;102025.06;5078711;28;20077;-78
2023/05/13 01:21:05;;;;;;;10.52;7.68;;;;;;;13.39;96.88;102022.25;5087044;28;20347;-78
2023/05/13 01:23:30;;;;;;;9.98;8.55;;;;;;;13.41;95.43;102022.69;5077304;28;20509;-78
2023/05/13 01:25:56;;;;;;;8.73;6.80;;;;;;;13.44;95.84;102016.31;5080752;28;20052;-78
2023/05/13 01:28:22;;;;;;;10.25;7.50;;;;;;;13.46;94.97;102022.41;5080295;28;20036;-78
2023/05/13 01:30:48;;;;;;;10.23;8.35;;;;;;;13.40;95.36;102009.81;5075489;28;20032;-78
2023/05/13 01:33:15;;;;;;;8.88;7.47;;;;;;;13.39;96.25;102005.38;5077447;28;20529;-78
2023/05/13 01:35:42;;;;;;;9.20;8.13;;;;;;;13.42;97.09;102025.13;5070450;28;20433;-78
2023/05/13 01:38:09;;;;;;;9.68;8.27;;;;;;;13.42;96.53;102024.31;5064145;28;20024;-78
2023/05/13 01:40:34;;;;;;;12.50;8.02;;;;;;;13.26;97.12;102020.72;5098999;28;20860;-79
2023/05/13 01:42:59;;;;;;;9.63;8.13;;;;;;;13.36;96.80;102026.59;5087780;28;20294;-78
2023/05/13 01:45:28;;;;;;;11.98;8.65;;;;;;;13.10;97.64;102006.72;5086058;28;20122;-78
2023/05/13 01:47:53;;;;;;;10.05;7.72;;;;;;;13.07;97.85;102002.66;5097568;28;20401;-78
2023/05/13 01:50:19;;;;;;;15.38;8.98;;;;;;;13.11;98.60;102019.59;5083927;28;20031;-78
2023/05/13 01:52:44;;;;;;;10.65;8.38;;;;;;;13.11;98.77;102020.44;5097918;28;20043;-78
2023/05/13 01:55:10;;;;;;;12.13;8.45;;;;;;;13.12;99.47;102022.03;5099116;28;20039;-78
2023/05/13 01:57:35;;;;;;;12.18;8.00;;;;;;;13.28;98.49;102018.34;5093677;28;20024;-78
2023/05/13 02:00:01;;;;;;;12.10;8.27;;;;;;;13.21;97.76;102024.63;5078116;28;20015;-78
2023/05/13 02:02:26;;;;;;;10.85;8.50;;;;;;;12.97;98.95;102020.91;5074041;28;20035;-79
2023/05/13 02:04:51;;;;;;;9.73;8.75;;;;;;;13.02;98.84;102017.81;5077207;28;20119;-79
2023/05/13 02:07:17;;;;;;;13.63;9.55;;;;;;;13.02;99.94;102022.63;5069802;28;20118;-78
2023/05/13 02:09:42;;;;;;;12.32;9.13;;;;;;;13.04;99.61;102023.06;5079805;28;20127;-78
2023/05/13 02:12:08;;;;;;;12.50;9.18;;;;;;;13.00;100.00;102019.34;5073145;28;20028;-78
2023/05/13 02:14:33;;;;;;;11.52;8.35;;;;;;;13.05;99.41;102026.69;5075192;28;20027;-78
2023/05/13 02:16:58;;;;;;;9.75;8.15;;;;;;;13.05;98.98;102016.28;5071150;28;20054;-78
2023/05/13 02:19:24;;;;;;;10.23;9.05;;;;;;;12.98;99.36;102021.72;5095470;28;20058;-78
2023/05/13 02:21:49;;;;;;;10.98;8.85;;;;;;;13.02;99.64;102025.41;5077439;28;20549;-78
2023/05/13 02:24:16;;;;;;;11.88;8.55;;;;;;;12.84;100.00;102027.00;5092942;28;20028;-78
2023/05/13 02:26:41;;;;;;;13.02;9.20;;;;;;;12.88;99.64;102023.13;5076077;28;20031;-78
2023/05/13 02:29:07;;;;;;;14.02;9.43;;;;;;;12.86;99.74;102024.63;5077446;28;20481;-78
2023/05/13 02:31:32;;;;;;;13.10;9.27;;;;;;;12.82;100.00;102035.81;5096378;28;20110;-78
2023/05/13 02:33:57;;;;;;;11.30;8.85;;;;;;;12.72;100.00;102025.94;5076663;28;20027;-78
2023/05/13 02:36:23;;;;;;;13.93;9.75;;;;;;;12.72;100.00;102020.31;5074534;28;20027;-79
2023/05/13 02:38:48;;;;;;;13.32;9.52;;;;;;;12.89;100.00;102032.34;5085241;27;20040;-78
2023/05/13 02:41:15;;;;;;;12.18;8.90;;;;;;;12.85;100.00;102028.66;5069610;28;20106;-78
2023/05/13 02:43:41;;;;;;;12.40;9.07;;;;;;;12.70;100.00;102019.88;5083322;28;20314;-78
2023/05/13 02:46:06;;;;;;;11.25;9.45;;;;;;;12.73;100.00;102019.16;5070757;28;20024;-77
2023/05/13 02:48:32;;;;;;;11.10;9.20;;;;;;;12.64;100.00;102012.91;5073100;28;20425;-78
2023/05/13 02:50:57;;;;;;;13.50;8.85;;;;;;;12.76;100.00;102021.22;5069249;28;22036;-78
2023/05/13 02:53:23;;;;;;;12.15;9.68;;;;;;;12.61;100.00;102010.84;5074663;28;20042;-78
2023/05/13 02:55:48;;;;;;;16.05;9.75;;;;;;;12.55;100.00;102017.91;5071729;28;20058;-78
2023/05/13 02:58:14;;;;;;;12.77;8.85;;;;;;;12.64;100.00;102023.34;5073331;28;20067;-78
2023/05/13 03:00:39;;;;;;;10.55;8.55;;;;;;;12.63;100.00;102021.69;5074770;28;20035;-78
2023/05/13 03:03:05;;;;;;;12.80;9.30;;;;;;;12.53;100.00;102017.47;5065275;28;20036;-78
2023/05/13 03:05:30;;;;;;;11.90;8.70;;;;;;;12.65;100.00;102019.31;5070273;28;20035;-78
2023/05/13 03:07:56;;;;;;;10.43;8.05;;;;;;;12.49;100.00;102011.75;5061279;28;20135;-78
2023/05/13 03:10:22;;;;;;;12.32;9.27;;;;;;;12.52;100.00;102010.19;5070960;28;20031;-78
2023/05/13 03:12:47;;;;;;;13.70;9.30;;;;;;;12.58;100.00;102022.78;5066540;28;20855;-78
2023/05/13 03:15:13;;;;;;;13.65;9.05;;;;;;;12.45;100.00;102016.44;5064800;28;20043;-78
2023/05/13 03:17:38;;;;;;;12.13;9.25;;;;;;;12.31;100.00;102022.53;5070091;28;20043;-78
2023/05/13 03:20:04;;;;;;;15.10;9.25;;;;;;;12.54;100.00;102019.06;5073214;28;20059;-78
2023/05/13 03:22:30;;;;;;;15.45;9.95;;;;;;;12.36;100.00;102013.84;5071405;28;20028;-78
2023/05/13 03:24:57;;;;;;;11.68;9.45;;;;;;;12.50;100.00;102006.94;5074164;28;20115;-78
2023/05/13 03:27:22;;;;;;;12.27;9.00;;;;;;;12.58;100.00;102019.97;5068975;28;20033;-78
2023/05/13 03:29:47;;;;;;;11.18;9.02;;;;;;;12.45;100.00;102013.66;5079469;28;20564;-78
2023/05/13 03:32:13;;;;;;;11.73;8.88;;;;;;;12.45;100.00;102018.44;5075964;28;20056;-77
2023/05/13 03:34:38;;;;;;;16.73;9.60;;;;;;;12.32;100.00;102012.13;5077767;28;20020;-77
2023/05/13 03:37:04;;;;;;;12.52;9.77;;;;;;;12.36;100.00;102013.03;5075927;28;20366;-77
2023/05/13 03:39:29;;;;;;;11.63;8.80;;;;;;;12.36;100.00;102010.22;5076616;28;20040;-78
2023/05/13 03:41:55;;;;;;;12.50;8.65;;;;;;;12.30;100.00;102017.28;5078218;28;20527;-79
2023/05/13 03:44:21;;;;;;;14.85;9.95;;;;;;;12.29;100.00;102019.28;5080883;28;20504;-79
2023/05/13 03:46:46;;;;;;;14.25;10.35;;;;;;;12.20;100.00;102016.63;5072662;28;20723;-79
2023/05/13 03:49:11;;;;;;;14.88;9.40;;;;;;;12.25;100.00;102029.59;5081466;28;20043;-79
2023/05/13 03:51:37;;;;;;;10.50;9.23;;;;;;;12.17;100.00;102028.59;5074227;28;20101;-79
2023/05/13 03:54:02;;;;;;;15.18;10.05;;;;;;;12.14;100.00;102022.88;5076602;28;20028;-79
2023/05/13 03:56:27;;;;;;;11.77;8.68;;;;;;;12.14;100.00;102020.06;5067756;28;20035;-79
2023/05/13 03:58:53;;;;;;;12.73;8.95;;;;;;;12.04;100.00;102027.03;5081046;28;20032;-78
2023/05/13 04:01:19;;;;;;;12.90;9.57;;;;;;;12.09;100.00;102025.97;5086507;28;20035;-79
2023/05/13 04:03:45;;;;;;;12.93;8.75;;;;;;;12.22;100.00;102027.50;5070292;28;20032;-79
2023/05/13 04:06:12;;;;;;;15.77;9.13;;;;;;;12.28;100.00;102033.66;5069349;28;20031;-79
2023/05/13 04:08:38;;;;;;;14.13;9.57;;;;;;;12.15;100.00;102035.75;5071270;28;20028;-79
2023/05/13 04:11:03;;;;;;;15.68;10.40;;;;;;;12.01;100.00;102036.16;5071466;28;20416;-78
2023/05/13 04:13:29;;;;;;;11.38;8.85;;;;;;;12.08;100.00;102039.19;5075573;28;20116;-78
2023/05/13 04:15:54;;;;;;;13.13;9.85;;;;;;;12.17;100.00;102027.78;5059524;28;20490;-78
2023/05/13 04:18:20;;;;;;;11.48;9.68;;;;;;;12.29;100.00;102030.50;5065980;28;20027;-78
2023/05/13 04:20:46;;;;;;;13.55;8.80;;;;;;;12.23;100.00;102039.53;5075919;28;20032;-79
2023/05/13 04:23:11;;;;;;;13.02;8.93;;;;;;;12.18;100.00;102041.47;5079823;28;20032;-79
2023/05/13 04:25:36;;;;;;;13.88;10.13;;;;;;;12.31;100.00;102046.97;5075202;28;20028;-79
2023/05/13 04:28:02;;;;;;;12.85;10.05;;;;;;;12.09;100.00;102042.81;5069553;28;20074;-79
2023/05/13 04:30:27;;;;;;;14.23;10.50;;;;;;;12.02;100.00;102037.81;5077423;28;20059;-79
2023/05/13 04:32:53;;;;;;;12.40;9.43;;;;;;;12.00;100.00;102052.19;5092584;28;20052;-79
2023/05/13 04:35:18;;;;;;;12.63;10.25;;;;;;;12.11;100.00;102054.47;5070103;28;20393;-78
2023/05/13 04:37:43;;;;;;;12.27;10.27;;;;;;;12.26;100.00;102053.69;5071593;28;20185;-79
2023/05/13 04:40:09;;;;;;;15.70;10.50;;;;;;;12.30;100.00;102065.81;5074103;28;20188;-78
2023/05/13 04:42:35;;;;;;;18.52;10.88;;;;;;;12.22;100.00;102055.56;5073996;28;20063;-79
2023/05/13 04:45:00;;;;;;;16.70;11.38;;;;;;;12.11;100.00;102057.28;5070128;28;20032;-78
2023/05/13 04:47:26;;;;;;;15.52;10.40;;;;;;;11.94;100.00;102064.84;5074040;28;20055;-79
2023/05/13 04:49:51;;;;;;;13.80;10.77;;;;;;;11.85;100.00;102066.13;5076567;28;20024;-79
2023/05/13 04:52:18;;;;;;;14.50;11.45;;;;;;;11.97;100.00;102058.53;5088273;28;20127;-79
2023/05/13 04:54:44;;;;;;;19.55;12.90;;;;;;;12.08;100.00;102067.25;5081800;28;20028;-79
2023/05/13 04:57:09;;;;;;;16.88;11.07;;;;;;;11.96;100.00;102065.31;5085970;28;20042;-78
2023/05/13 04:59:35;;;;;;;18.27;11.80;;;;;;;12.03;100.00;102069.50;5079555;28;20474;-79
2023/05/13 05:02:00;;;;;;;16.65;11.52;;;;;;;11.85;100.00;102077.38;5079369;28;20031;-79
2023/05/13 05:04:26;;;;;;;16.63;11.50;;;;;;;11.73;100.00;102076.25;5081212;28;20028;-79
2023/05/13 05:06:52;;;;;;;15.23;11.18;;;;;;;11.98;100.00;102088.22;5072182;28;20380;-79
2023/05/13 05:09:17;;;;;;;18.02;12.77;;;;;;;11.87;100.00;102087.09;5070360;28;20012;-79
2023/05/13 05:11:43;;;;;;;19.45;11.55;;;;;;;11.95;100.00;102080.53;5067510;28;20025;-79
2023/05/13 05:14:08;;;;;;;14.20;10.77;;;;;;;11.91;100.00;102088.03;5069520;28;20033;-78
2023/05/13 05:16:34;;;;;;;15.35;11.88;;;;;;;11.97;100.00;102089.41;5062113;28;20400;-78
2023/05/13 05:18:59;;;;;;;15.40;11.50;;;;;;;12.00;100.00;102094.28;5079660;28;20450;-79
2023/05/13 05:21:25;;;;;;;14.45;11.35;;;;;;;11.92;100.00;102086.84;5078630;28;20043;-79
2023/05/13 05:23:50;;;;;;;17.38;11.57;;;;;;;12.07;100.00;102090.06;5073838;28;20028;-79
2023/05/13 05:26:15;;;;;;;19.55;13.00;;;;;;;11.80;100.00;102093.31;5072316;28;20040;-78
2023/05/13 05:28:42;;;;;;;17.48;13.02;;;;;;;11.79;100.00;102102.06;5081643;28;20040;-79
2023/05/13 05:31:08;;;;;;;18.67;11.88;;;;;;;12.01;100.00;102092.28;5078163;28;20044;-79
2023/05/13 05:33:34;;;;;;;15.35;11.98;;;;;;;12.06;100.00;102091.22;5079575;28;20032;-79
2023/05/13 05:36:00;;;;;;;16.83;12.10;;;;;;;12.08;100.00;102100.09;5074495;28;20039;-79
2023/05/13 05:38:26;;;;;;;18.80;12.32;;;;;;;11.79;100.00;102093.66;5077057;28;20024;-79
2023/05/13 05:40:51;;;;;;;19.67;12.63;;;;;;;11.90;100.00;102080.78;5080745;28;20093;-79
2023/05/13 05:43:17;;;;;;;16.92;12.05;;;;;;;11.88;100.00;102088.72;5081831;28;20102;-79
2023/05/13 05:45:42;;;;;;;20.52;13.38;;;;;;;11.68;100.00;102090.53;5082137;28;20059;-79
2023/05/13 05:48:08;;;;;;;20.77;13.57;;;;;;;11.69;100.00;102074.53;5078413;28;20031;-79
2023/05/13 05:50:34;;;;;;;17.27;12.25;;;;;;;11.70;100.00;102076.13;5080261;28;20415;-78
2023/05/13 05:52:59;;;;;;;17.77;13.93;;;;;;;11.93;100.00;102093.25;5072701;28;20037;-79
2023/05/13 05:55:30;;;;;;;16.40;10.88;;;;;;;12.10;100.00;102090.16;5080616;28;20028;-78
2023/05/13 05:57:56;;;;;;;17.88;12.43;;;;;;;12.13;100.00;102094.22;5077926;28;20346;-79
2023/05/13 06:00:23;;;;;;;19.75;12.77;;;;;;;12.04;100.00;102111.22;5083050;28;20212;-79
2023/05/13 06:02:48;;;;;;;17.95;12.20;;;;;;;12.06;100.00;102100.47;5084694;28;20446;-79
2023/05/13 06:05:14;;;;;;;17.48;12.57;;;;;;;12.25;100.00;102102.59;5078569;28;20060;-79
2023/05/13 06:07:40;;;;;;;15.75;11.13;;;;;;;12.33;100.00;102097.97;5072227;28;20449;-79
2023/05/13 06:10:06;;;;;;;21.38;12.65;;;;;;;12.16;100.00;102093.50;5068253;28;20032;-79
2023/05/13 06:12:31;;;;;;;17.48;12.30;;;;;;;12.19;100.00;102098.41;5073532;28;20461;-79
2023/05/13 06:14:57;;;;;;;22.35;12.38;;;;;;;12.15;100.00;102103.09;5077323;28;20117;-79
2023/05/13 06:17:23;;;;;;;17.15;12.82;;;;;;;12.24;100.00;102100.94;5076600;28;20669;-79
2023/05/13 06:19:48;;;;;;;16.00;11.82;;;;;;;12.43;100.00;102105.06;5080014;28;20026;-79
2023/05/13 06:22:14;;;;;;;17.90;12.27;;;;;;;12.27;100.00;102086.19;5073002;28;20500;-78
2023/05/13 06:24:41;;;;;;;19.15;12.98;;;;;;;12.30;100.00;102088.28;5071542;28;20035;-79
2023/05/13 06:27:07;;;;;;;17.02;11.18;;;;;;;12.51;100.00;102110.50;5088831;28;20265;-79
2023/05/13 06:29:32;;;;;;;18.65;12.80;;;;;;;12.50;100.00;102102.41;5083477;28;20393;-78
2023/05/13 06:31:57;;;;;;;18.35;13.40;;;;;;;12.44;100.00;102093.47;5074432;28;21389;-79
2023/05/13 06:34:23;;;;;;;17.20;12.80;;;;;;;12.58;100.00;102107.84;5078599;28;20058;-79
2023/05/13 06:36:48;;;;;;;17.35;12.90;;;;;;;12.62;100.00;102093.91;5083810;28;20026;-79
2023/05/13 06:39:13;;;;;;;20.33;14.57;;;;;;;12.65;100.00;102097.97;5074012;28;20044;-79
2023/05/13 06:41:39;;;;;;;19.90;12.18;;;;;;;12.77;100.00;102103.50;5095188;28;20446;-79
2023/05/13 06:44:05;;;;;;;19.33;13.52;;;;;;;12.80;100.00;102103.59;5094498;28;20019;-79
2023/05/13 06:46:31;;;;;;;16.40;11.50;;;;;;;12.84;100.00;102100.91;5078149;28;20115;-79
2023/05/13 06:48:57;;;;;;;16.52;11.88;;;;;;;12.89;100.00;102102.59;5077686;28;20420;-79
2023/05/13 06:51:25;;;;;;;18.27;11.15;;;;;;;12.98;100.00;102112.47;5074258;28;20036;-79
2023/05/13 06:53:50;;;;;;;19.02;13.25;;;;;;;12.99;100.00;102110.50;5092933;28;20119;-78
2023/05/13 06:56:15;;;;;;;18.08;12.52;;;;;;;13.10;100.00;102114.34;5073631;28;20028;-79
2023/05/13 06:58:41;;;;;;;22.48;14.52;;;;;;;13.23;100.00;102115.88;5075744;28;20051;-78
2023/05/13 07:01:06;;;;;;;22.55;13.30;;;;;;;13.30;100.00;102112.47;5092101;28;20518;-78
2023/05/13 07:03:31;;;;;;;19.52;13.45;;;;;;;13.28;100.00;102108.31;5097141;28;20370;-78
2023/05/13 07:05:57;;;;;;;19.92;13.48;;;;;;;13.22;100.00;102105.81;5101975;28;20027;-78
2023/05/13 07:08:22;;;;;;;21.20;13.05;;;;;;;13.21;100.00;102101.34;5076160;28;20047;-78
2023/05/13 07:10:47;;;;;;;19.17;13.55;;;;;;;13.28;100.00;102102.72;5085466;28;20023;-78
2023/05/13 07:13:13;;;;;;;19.05;13.10;;;;;;;13.42;100.00;102091.81;5096101;28;20501;-78
2023/05/13 07:15:38;;;;;;;18.05;12.75;;;;;;;13.37;100.00;102104.16;5074194;28;20043;-79
2023/05/13 07:18:04;;;;;;;16.17;12.30;;;;;;;13.46;100.00;102098.34;5089727;27;20023;-79
2023/05/13 07:20:30;;;;;;;21.40;14.50;;;;;;;13.60;100.00;102093.03;5091070;28;20066;-78
2023/05/13 07:22:55;;;;;;;20.42;13.27;;;;;;;13.63;100.00;102097.09;5097044;27;20077;-78
2023/05/13 07:25:21;;;;;;;19.60;13.85;;;;;;;13.76;100.00;102100.56;5106794;27;20035;-78
2023/05/13 07:27:46;;;;;;;16.05;12.90;;;;;;;13.95;100.00;102109.00;5087211;28;20122;-78
2023/05/13 07:30:12;;;;;;;18.05;13.25;;;;;;;13.88;100.00;102105.25;5098692;27;20549;-77
2023/05/13 07:32:38;;;;;;;15.23;12.70;;;;;;;13.99;100.00;102101.44;5084793;28;20533;-78
2023/05/13 07:35:04;;;;;;;17.13;12.77;;;;;;;14.03;100.00;102110.78;5077949;28;20543;-78
2023/05/13 07:37:30;;;;;;;18.60;13.55;;;;;;;14.13;100.00;102102.94;5086901;28;20388;-78
2023/05/13 07:39:55;;;;;;;16.08;11.48;;;;;;;14.28;100.00;102104.81;5097062;27;20044;-78
2023/05/13 07:42:21;;;;;;;16.13;12.10;;;;;;;14.39;100.00;102108.63;5099166;27;20122;-78
2023/05/13 07:44:46;;;;;;;17.25;12.55;;;;;;;14.39;100.00;102105.00;5101816;27;20406;-78
2023/05/13 07:47:12;;;;;;;19.15;12.55;;;;;;;14.65;100.00;102112.75;5101776;27;20076;-78
2023/05/13 07:49:38;;;;;;;15.43;11.77;;;;;;;14.67;100.00;102107.53;5091705;28;20032;-78
2023/05/13 07:52:03;;;;;;;18.25;11.88;;;;;;;14.65;100.00;102107.09;5095912;28;20074;-78
2023/05/13 07:54:28;;;;;;;15.60;10.98;;;;;;;14.79;100.00;102104.53;5079746;28;20531;-78
2023/05/13 07:56:54;;;;;;;17.15;12.32;;;;;;;14.82;100.00;102103.81;5085442;28;20023;-78
2023/05/13 07:59:19;;;;;;;18.77;12.27;;;;;;;14.98;100.00;102105.66;5085113;28;20048;-78
2023/05/13 08:01:45;;;;;;;14.85;11.25;;;;;;;15.08;99.87;102102.19;5097172;28;20528;-78
2023/05/13 08:04:10;;;;;;;15.60;10.82;;;;;;;15.19;99.95;102107.97;5101351;28;20093;-78
2023/05/13 08:06:35;;;;;;;16.60;10.15;;;;;;;15.48;99.01;102109.22;5086536;28;20514;-78
2023/05/13 08:09:01;;;;;;;15.82;10.77;;;;;;;15.60;99.24;102111.81;5090839;28;20020;-78
2023/05/13 08:11:27;;;;;;;15.10;10.98;;;;;;;15.75;98.85;102112.03;5096003;27;20056;-78
2023/05/13 08:13:52;;;;;;;15.57;11.15;;;;;;;15.79;97.09;102121.31;5097846;28;20038;-78
2023/05/13 08:16:18;;;;;;;16.75;12.30;;;;;;;15.95;97.28;102115.47;5083836;28;20028;-78
2023/05/13 08:18:43;;;;;;;18.88;10.68;;;;;;;15.91;97.96;102115.44;5084844;28;20016;-78
2023/05/13 08:21:09;;;;;;;15.48;10.23;;;;;;;15.77;96.70;102120.91;5082818;28;20016;-78
2023/05/13 08:23:36;;;;;;;16.13;10.43;;;;;;;15.91;96.17;102118.25;5098594;28;20019;-78
2023/05/13 08:26:01;;;;;;;12.60;10.45;;;;;;;16.11;95.53;102118.09;5099325;28;20227;-78
2023/05/13 08:28:28;;;;;;;13.35;10.18;;;;;;;16.06;95.89;102122.06;5086277;27;20076;-78
2023/05/13 08:30:54;;;;;;;16.95;11.25;;;;;;;15.98;95.20;102121.19;5094438;27;20102;-78
2023/05/13 08:33:19;;;;;;;14.45;10.20;;;;;;;16.25;93.66;102129.53;5102922;27;20032;-78
2023/05/13 08:35:45;;;;;;;13.90;9.57;;;;;;;16.52;92.30;102120.94;5095978;28;20098;-78
2023/05/13 08:38:11;;;;;;;15.50;10.52;;;;;;;16.79;89.96;102113.91;5078362;28;20024;-78
2023/05/13 08:40:37;;;;;;;15.00;9.65;;;;;;;16.58;92.80;102116.56;5106542;28;20044;-78
2023/05/13 08:43:03;;;;;;;17.10;9.13;;;;;;;16.26;94.44;102111.41;5105195;28;20024;-79
2023/05/13 08:45:30;;;;;;;16.80;10.75;;;;;;;16.35;94.06;102109.06;5082880;28;20046;-79
2023/05/13 08:48:00;;;;;;;13.65;9.18;;;;;;;15.99;95.31;102111.50;5104519;28;20544;-79
2023/05/13 08:50:27;;;;;;;12.55;7.88;;;;;;;16.22;92.06;102104.91;5096897;28;20076;-79
2023/05/13 08:52:52;;;;;;;12.88;9.55;;;;;;;16.31;93.42;102122.34;5105827;28;20455;-79
2023/05/13 08:55:18;;;;;;;10.40;8.30;;;;;;;16.62;89.11;102117.41;5108358;28;20035;-79
2023/05/13 08:57:44;;;;;;;12.75;8.15;;;;;;;16.52;91.35;102121.75;5102129;28;20026;-79
2023/05/13 09:00:10;;;;;;;13.15;8.93;;;;;;;16.43;90.66;102124.91;5087753;28;20055;-79
2023/05/13 09:02:36;;;;;;;12.27;8.73;;;;;;;16.54;90.72;102115.72;5110195;28;20102;-79
2023/05/13 09:05:07;;;;;;;13.23;8.68;;;;;;;17.04;88.88;102110.50;5105696;28;20118;-80
2023/05/13 09:07:37;;;;;;;13.38;9.30;;;;;;;16.81;89.02;102107.91;5083272;28;20026;-80
2023/05/13 09:10:04;;;;;;;14.02;9.30;;;;;;;16.81;89.26;102116.41;5104135;28;20024;-80
2023/05/13 09:12:50;;;;;;;12.13;9.07;;;;;;;17.05;88.76;102112.13;5075912;28;20020;-80
2023/05/13 09:15:21;;;;;;;13.10;8.40;;;;;;;17.33;86.81;102107.84;5103869;28;20047;-79
2023/05/13 09:17:52;;;;;;;16.17;8.60;;;;;;;17.94;84.99;102114.69;5093105;28;20036;-79
2023/05/13 09:20:19;;;;;;;11.35;8.55;;;;;;;17.91;84.83;102109.81;5083412;28;20039;-80
2023/05/13 09:22:45;;;;;;;12.13;8.85;;;;;;;17.46;85.81;102106.34;5105870;28;20035;-80
2023/05/13 09:25:12;;;;;;;10.52;7.90;;;;;;;17.47;85.84;102102.28;5080201;28;20408;-79
2023/05/13 09:27:40;;;;;;;13.80;8.75;;;;;;;17.56;86.02;102105.59;5093141;28;20031;-79
2023/05/13 09:30:06;;;;;;;12.90;8.68;;;;;;;17.40;87.42;102108.72;5104031;28;20481;-79
2023/05/13 09:32:32;;;;;;;12.48;7.95;;;;;;;17.64;86.06;102100.75;5103246;28;20370;-80
2023/05/13 09:35:15;;;;;;;12.07;8.88;;;;;;;17.81;84.32;102104.88;5096917;28;20043;-80
2023/05/13 09:37:46;;;;;;;12.45;8.30;;;;;;;17.74;85.80;102104.84;5100100;28;20024;-79
2023/05/13 09:40:13;;;;;;;10.07;8.23;;;;;;;18.20;85.31;102104.22;5098918;27;20039;-80
2023/05/13 09:42:43;;;;;;;11.60;8.27;;;;;;;18.25;84.49;102101.00;5100297;28;20560;-80
2023/05/13 09:45:10;;;;;;;13.70;8.88;;;;;;;18.19;86.84;102102.59;5085275;27;20445;-80
2023/05/13 09:47:36;;;;;;;12.15;9.43;;;;;;;18.59;82.28;102097.78;5080297;28;20031;-82
2023/05/13 09:50:02;;;;;;;12.98;7.53;;;;;;;18.57;81.65;102100.22;5078060;27;20037;-81
2023/05/13 09:52:31;;;;;;;8.73;6.68;;;;;;;18.54;82.63;102101.84;5111242;27;20122;-81
2023/05/13 09:54:58;;;;;;;12.38;8.10;;;;;;;18.48;80.45;102109.13;5113663;27;20752;-81
2023/05/13 09:57:26;;;;;;;11.95;7.72;;;;;;;18.50;79.44;102095.38;5105922;27;20059;-86
2023/05/13 09:59:55;;;;;;;9.25;6.65;;;;;;;19.40;75.54;102096.13;5079335;28;20103;-87
2023/05/13 10:02:21;;;;;;;8.07;6.70;;;;;;;19.58;74.57;102103.78;5080749;27;20028;-87
2023/05/13 10:04:46;;;;;;;7.10;5.88;;;;;;;19.55;71.56;102079.84;5079751;28;20050;-87
2023/05/13 10:07:12;;;;;;;11.40;6.75;;;;;;;19.84;71.59;102091.94;5085313;28;20042;-87
2023/05/13 10:09:39;;;;;;;7.53;6.60;;;;;;;20.06;66.87;102098.31;5082400;28;20023;-87
2023/05/13 10:12:07;;;;;;;6.15;5.05;;;;;;;20.01;69.49;102098.75;5079266;28;22513;-86
2023/05/13 10:14:33;;;;;;;8.57;5.13;;;;;;;20.05;64.70;102085.34;5082245;28;20119;-86
2023/05/13 10:16:59;;;;;;;5.32;4.82;;;;;;;20.25;64.97;102076.28;5078613;28;20582;-87
2023/05/13 10:19:25;;;;;;;5.43;4.68;;;;;;;20.05;61.80;102084.53;5075495;28;20027;-86
2023/05/13 10:21:53;;;;;;;6.78;5.32;;;;;;;20.33;63.91;102077.84;5075971;28;20074;-87
2023/05/13 10:24:20;;;;;;;9.38;6.00;;;;;;;20.86;63.15;102082.31;5085934;28;20112;-86
2023/05/13 10:26:47;;;;;;;5.45;4.13;;;;;;;20.72;64.09;102088.13;5104833;27;20035;-86
2023/05/13 10:29:13;;;;;;;7.78;5.68;;;;;;;20.75;62.05;102081.63;5083938;28;20026;-87
2023/05/13 10:31:39;;;;;;;8.65;5.15;;;;;;;20.73;62.60;102072.69;5081431;28;20492;-87
2023/05/13 10:34:05;;;;;;;5.82;5.15;;;;;;;21.03;60.10;102086.22;5104193;27;20481;-87
2023/05/13 10:37:04;;;;;;;6.65;5.18;;;;;;;20.87;65.69;102083.94;5099527;28;20027;-87
2023/05/13 10:39:38;;;;;;;7.80;5.38;;;;;;;20.89;60.48;102074.97;5104251;28;20513;-87
2023/05/13 10:42:12;;;;;;;11.07;5.13;;;;;;;21.10;62.78;102079.66;5085220;28;20058;-87
2023/05/13 10:44:38;;;;;;;4.55;4.13;;;;;;;21.80;57.13;102070.75;5084843;28;20028;-87
2023/05/13 10:47:03;;;;;;;6.63;4.80;;;;;;;21.35;58.18;102068.00;5089744;28;20027;-87
2023/05/13 10:49:33;;;;;;;9.35;4.60;;;;;;;21.39;57.18;102073.66;5082118;28;20039;-87
2023/05/13 10:52:07;;;;;;;5.18;3.83;;;;;;;21.39;54.98;102065.09;5086602;28;20031;-88
2023/05/13 10:54:40;;;;;;;9.63;6.03;;;;;;;21.28;55.14;102063.19;5083672;28;20032;-88
2023/05/13 10:57:07;;;;;;;10.07;4.38;;;;;;;21.80;52.31;102064.22;5100775;28;20028;-87
2023/05/13 10:59:34;;;;;;;5.10;3.92;;;;;;;21.59;50.44;102054.72;5090567;28;20030;-88
2023/05/13 11:02:23;;;;;;;6.53;4.03;;;;;;;22.15;46.21;102048.66;5084691;28;20036;-87
2023/05/13 11:04:59;;;;;;;7.57;3.50;;;;;;;22.17;50.82;102053.94;5097670;28;20035;-90
2023/05/13 11:07:28;;;;;;;4.15;3.55;;;;;;;22.96;46.12;102046.91;5084771;28;20085;-91
2023/05/13 11:09:53;;;;;;;4.90;3.83;;;;;;;22.34;47.47;102047.16;5093959;28;20050;-91